createdAt,value
2022-08-04T00:02:16.666Z,39.38
2022-08-04T00:05:01.636Z,38.25
2022-08-04T00:08:22.254Z,38.78
2022-08-04T00:10:55.144Z,38.73
2022-08-04T00:13:32.753Z,38.82
2022-08-04T00:16:12.382Z,38.85
2022-08-04T00:19:01.565Z,39.31
2022-08-04T00:21:31.461Z,39.12
2022-08-04T00:24:12.201Z,39.85
2022-08-04T00:26:41.561Z,39.10
2022-08-04T00:29:09.144Z,39.17
2022-08-04T00:31:56.403Z,39.63
2022-08-04T00:34:31.472Z,40.38
2022-08-04T00:36:59.594Z,40.17
2022-08-04T00:39:27.981Z,40.07
2022-08-04T00:42:31.401Z,40.56
2022-08-04T00:46:15.743Z,40.31
2022-08-04T00:49:30.116Z,40.65
2022-08-04T00:52:33.762Z,40.71
2022-08-04T00:55:53.310Z,41.13
2022-08-04T00:58:55.460Z,41.26
2022-08-04T01:02:17.555Z,41.13
2022-08-04T01:05:43.676Z,41.45
2022-08-04T01:08:49.520Z,41.65
2022-08-04T01:12:32.313Z,41.15
2022-08-04T01:15:59.884Z,41.10
2022-08-04T01:19:23.164Z,41.54
2022-08-04T01:22:33.418Z,41.55
2022-08-04T01:25:34.213Z,41.45
2022-08-04T01:28:58.407Z,41.31
2022-08-04T01:32:20.998Z,41.10
2022-08-04T01:35:46.464Z,41.59
2022-08-04T01:38:41.025Z,41.44
2022-08-04T01:41:14.998Z,41.42
2022-08-04T01:43:46.692Z,41.07
2022-08-04T01:46:18.074Z,41.39
2022-08-04T01:48:53.603Z,41.06
2022-08-04T01:51:24.517Z,40.89
2022-08-04T01:53:51.904Z,41.54
2022-08-04T01:56:20.811Z,41.15
2022-08-04T01:58:49.388Z,41.62
2022-08-04T02:01:16.784Z,41.72
2022-08-04T02:04:19.434Z,41.73
2022-08-04T02:07:13.615Z,41.65
2022-08-04T02:10:44.478Z,41.92
2022-08-04T02:13:43.926Z,42.31
2022-08-04T02:16:52.437Z,42.68
2022-08-04T02:20:16.099Z,42.90
2022-08-04T02:23:14.513Z,42.94
2022-08-04T02:25:55.749Z,43.57
2022-08-04T02:28:48.547Z,43.55
2022-08-04T02:31:33.368Z,44.12
2022-08-04T02:34:48.820Z,44.09
2022-08-04T02:37:19.997Z,44.22
2022-08-04T02:39:53.020Z,44.43
2022-08-04T02:42:22.645Z,44.00
2022-08-04T02:44:56.912Z,44.22
2022-08-04T02:48:08.096Z,44.72
2022-08-04T02:50:28.576Z,44.74
2022-08-04T02:53:00.585Z,44.60
2022-08-04T02:55:30.491Z,44.45
2022-08-04T02:58:02.045Z,44.64
2022-08-04T03:00:30.389Z,44.83
2022-08-04T03:03:34.499Z,44.67
2022-08-04T03:06:11.384Z,44.77
2022-08-04T03:09:37.497Z,44.66
2022-08-04T03:13:05.192Z,44.38
2022-08-04T03:16:09.781Z,44.58
2022-08-04T03:19:19.587Z,44.45
2022-08-04T03:23:12.536Z,44.54
2022-08-04T03:26:26.501Z,44.64
2022-08-04T03:29:55.385Z,44.84
2022-08-04T03:32:37.346Z,44.67
2022-08-04T03:36:05.795Z,44.86
2022-08-04T03:39:58.665Z,45.45
2022-08-04T03:43:00.045Z,45.30
2022-08-04T03:46:29.724Z,45.66
2022-08-04T03:49:36.459Z,45.55
2022-08-04T03:52:58.808Z,45.54
2022-08-04T03:56:40.232Z,46.07
2022-08-04T04:00:19.635Z,45.73
2022-08-04T04:03:29.135Z,45.73
2022-08-04T04:07:11.384Z,45.83
2022-08-04T04:10:29.022Z,46.02
2022-08-04T04:13:46.154Z,45.86
2022-08-04T04:16:50.821Z,46.08
2022-08-04T04:19:47.856Z,46.03
2022-08-04T04:22:42.200Z,45.80
2022-08-04T04:25:46.893Z,45.90
2022-08-04T04:29:14.342Z,46.28
2022-08-04T04:32:18.692Z,46.59
2022-08-04T04:35:14.472Z,46.39
2022-08-04T04:38:38.197Z,46.76
2022-08-04T04:41:30.790Z,46.83
2022-08-04T04:44:56.004Z,46.93
2022-08-04T04:48:07.384Z,46.99
2022-08-04T04:51:29.509Z,47.10
2022-08-04T04:54:30.705Z,47.75
2022-08-04T04:57:17.889Z,47.26
2022-08-04T05:00:12.215Z,47.09
2022-08-04T05:03:24.022Z,47.09
2022-08-04T05:06:54.637Z,47.37
2022-08-04T05:10:29.311Z,47.33
2022-08-04T05:14:38.055Z,47.39
2022-08-04T05:17:03.188Z,47.28
2022-08-04T05:19:52.176Z,47.33
2022-08-04T05:22:56.428Z,47.37
2022-08-04T05:25:36.176Z,47.28
2022-08-04T05:28:39.625Z,47.44
2022-08-04T05:31:28.365Z,47.61
2022-08-04T05:34:20.370Z,47.25
2022-08-04T05:36:58.835Z,47.45
2022-08-04T05:39:34.618Z,47.43
2022-08-04T05:42:05.044Z,46.98
2022-08-04T05:44:36.859Z,47.40
2022-08-04T05:47:05.438Z,47.43
2022-08-04T05:49:34.733Z,47.00
2022-08-04T05:52:05.028Z,46.96
2022-08-04T05:54:34.907Z,46.72
2022-08-04T05:57:08.586Z,46.69
2022-08-04T05:59:42.806Z,46.74
2022-08-04T06:02:11.411Z,46.35
2022-08-04T06:04:45.267Z,46.43
2022-08-04T06:07:17.109Z,46.10
2022-08-04T06:09:44.914Z,46.24
2022-08-04T06:12:23.332Z,46.64
2022-08-04T06:14:55.119Z,46.02
2022-08-04T06:19:57.202Z,46.28
2022-08-04T06:20:36.387Z,46.32
2022-08-04T06:23:18.561Z,45.84
2022-08-04T06:25:56.908Z,45.70
2022-08-04T06:28:26.268Z,45.96
2022-08-04T06:30:55.419Z,45.73
2022-08-04T06:33:27.808Z,45.99
2022-08-04T06:35:58.268Z,45.65
2022-08-04T06:38:30.032Z,45.31
2022-08-04T06:40:59.160Z,45.45
2022-08-04T06:43:32.440Z,45.35
2022-08-04T06:46:10.842Z,45.50
2022-08-04T06:48:39.505Z,45.22
2022-08-04T06:51:25.333Z,45.51
2022-08-04T06:53:54.837Z,45.03
2022-08-04T06:56:25.076Z,45.16
2022-08-04T06:58:55.773Z,45.25
2022-08-04T07:01:25.731Z,44.80
2022-08-04T07:03:53.409Z,44.56
2022-08-04T07:06:25.457Z,44.58
2022-08-04T07:08:54.390Z,44.52
2022-08-04T07:11:22.236Z,44.38
2022-08-04T07:13:50.353Z,44.04
2022-08-04T07:16:20.684Z,44.22
2022-08-04T07:18:58.099Z,44.07
2022-08-04T07:21:39.486Z,43.62
2022-08-04T07:24:07.252Z,43.44
2022-08-04T07:26:34.954Z,43.80
2022-08-04T07:29:03.030Z,43.85
2022-08-04T07:31:33.736Z,43.79
2022-08-04T07:34:17.786Z,43.63
2022-08-04T07:36:57.851Z,43.49
2022-08-04T07:39:31.510Z,43.55
2022-08-04T07:42:03.569Z,42.98
2022-08-04T07:44:34.935Z,43.35
2022-08-04T07:47:08.277Z,42.96
2022-08-04T07:49:55.656Z,42.63
2022-08-04T07:52:26.233Z,41.95
2022-08-04T07:54:54.528Z,41.90
2022-08-04T07:57:40.162Z,41.61
2022-08-04T08:00:14.270Z,42.00
2022-08-04T08:02:45.723Z,42.03
2022-08-04T08:05:17.876Z,40.97
2022-08-04T08:07:54.506Z,41.55
2022-08-04T08:10:24.247Z,41.23
2022-08-04T08:12:53.703Z,41.43
2022-08-04T08:15:22.381Z,42.13
2022-08-04T08:17:59.657Z,41.59
2022-08-04T08:20:31.888Z,40.97
2022-08-04T08:23:04.384Z,41.32
2022-08-04T08:25:33.778Z,40.38
2022-08-04T08:28:05.192Z,40.21
2022-08-04T08:30:34.686Z,39.88
2022-08-04T08:33:09.449Z,38.05
2022-08-04T08:36:19.835Z,37.25
2022-08-04T08:39:34.835Z,37.07
2022-08-04T08:44:06.034Z,36.85
2022-08-04T08:47:58.512Z,37.19
2022-08-04T08:51:20.231Z,35.92
2022-08-04T08:55:17.984Z,36.39
2022-08-04T08:58:32.470Z,35.47
2022-08-04T09:02:12.429Z,35.32
2022-08-04T09:05:27.129Z,34.82
2022-08-04T09:08:56.189Z,33.83
2022-08-04T09:11:35.149Z,34.57
2022-08-04T09:14:50.310Z,34.13
2022-08-04T09:18:22.655Z,33.18
2022-08-04T09:21:32.190Z,33.19
2022-08-04T09:24:36.240Z,34.14
2022-08-04T09:27:20.741Z,33.23
2022-08-04T09:30:10.455Z,32.19
2022-08-04T09:33:45.006Z,31.87
2022-08-04T09:36:53.594Z,31.82
2022-08-04T09:40:55.153Z,30.95
2022-08-04T09:44:52.475Z,31.45
2022-08-04T09:47:40.354Z,32.12
2022-08-04T09:50:40.022Z,31.54
2022-08-04T09:53:53.769Z,31.28
2022-08-04T09:56:57.189Z,31.39
2022-08-04T10:00:11.253Z,30.67
2022-08-04T10:02:56.400Z,29.60
2022-08-04T10:06:19.350Z,29.97
2022-08-04T10:09:46.405Z,29.95
2022-08-04T10:12:25.214Z,28.77
2022-08-04T10:15:11.653Z,29.47
2022-08-04T10:18:18.352Z,28.95
2022-08-04T10:21:58.988Z,29.84
2022-08-04T10:25:02.225Z,28.61
2022-08-04T10:27:43.421Z,27.89
2022-08-04T10:30:14.688Z,27.62
2022-08-04T10:33:23.609Z,27.91
2022-08-04T10:36:10.730Z,27.01
2022-08-04T10:39:43.378Z,27.04
2022-08-04T10:42:30.759Z,26.53
2022-08-04T10:45:46.848Z,26.33
2022-08-04T10:48:55.468Z,25.77
2022-08-04T10:51:58.004Z,26.65
2022-08-04T10:55:16.020Z,24.20
2022-08-04T10:58:01.013Z,25.19
2022-08-04T11:00:35.729Z,24.96
2022-08-04T11:03:40.809Z,23.95
2022-08-04T11:06:09.844Z,23.68
2022-08-04T11:08:50.597Z,24.02
2022-08-04T11:12:01.691Z,23.93
2022-08-04T11:15:07.703Z,22.92
2022-08-04T11:17:49.518Z,22.55
2022-08-04T11:20:37.015Z,22.98
2022-08-04T11:23:14.131Z,21.47
2022-08-04T11:26:29.165Z,19.44
2022-08-04T11:29:40.618Z,20.47
2022-08-04T11:32:37.657Z,20.40
2022-08-04T11:35:27.885Z,19.53
2022-08-04T11:39:11.363Z,19.51
2022-08-04T11:42:07.929Z,20.13
2022-08-04T11:45:11.208Z,19.13
2022-08-04T11:48:33.718Z,18.65
2022-08-04T11:51:06.858Z,18.38
2022-08-04T11:53:40.699Z,19.44
2022-08-04T11:56:36.680Z,18.86
2022-08-04T11:59:05.867Z,18.95
2022-08-04T12:02:16.694Z,18.68
2022-08-04T12:05:06.181Z,17.85
2022-08-04T12:08:00.128Z,18.01
2022-08-04T12:11:14.420Z,17.85
2022-08-04T12:14:15.384Z,17.92
2022-08-04T12:17:04.805Z,16.86
2022-08-04T12:20:05.141Z,17.37
2022-08-04T12:22:52.734Z,16.64
2022-08-04T12:25:44.904Z,16.90
2022-08-04T12:29:06.883Z,17.30
2022-08-04T12:31:56.884Z,16.32
2022-08-04T12:35:31.981Z,15.75
2022-08-04T12:38:14.444Z,15.66
2022-08-04T12:40:51.936Z,15.71
2022-08-04T12:43:43.019Z,15.32
2022-08-04T12:46:31.421Z,16.27
2022-08-04T12:49:04.571Z,16.48
2022-08-04T12:52:07.779Z,15.80
2022-08-04T12:54:32.196Z,15.87
2022-08-04T12:57:01.361Z,15.06
2022-08-04T12:59:28.881Z,14.23
2022-08-04T13:02:10.616Z,14.52
2022-08-04T13:04:42.701Z,15.10
2022-08-04T13:07:25.501Z,13.28
2022-08-04T13:09:54.293Z,14.04
2022-08-04T13:12:32.355Z,13.33
2022-08-04T13:15:18.714Z,12.62
2022-08-04T13:18:14.824Z,13.16
2022-08-04T13:20:44.849Z,13.24
2022-08-04T13:23:21.514Z,14.20
2022-08-04T13:26:43.533Z,12.90
2022-08-04T13:28:49.724Z,12.07
2022-08-04T13:31:24.621Z,11.39
2022-08-04T13:34:02.793Z,13.35
2022-08-04T13:36:32.742Z,11.51
2022-08-04T13:39:21.821Z,9.07
2022-08-04T13:41:58.922Z,8.66
2022-08-04T13:44:37.177Z,8.66
2022-08-04T13:47:21.568Z,9.44
2022-08-04T13:50:15.830Z,9.37
2022-08-04T13:52:46.345Z,9.85
2022-08-04T13:55:37.265Z,9.27
2022-08-04T13:58:20.378Z,10.41
2022-08-04T14:01:00.541Z,9.72
2022-08-04T14:03:55.805Z,9.30
2022-08-04T14:06:44.861Z,9.12
2022-08-04T14:09:34.933Z,9.75
2022-08-04T14:12:38.086Z,10.24
2022-08-04T14:15:02.426Z,9.68
2022-08-04T14:17:30.784Z,11.04
2022-08-04T14:20:04.472Z,10.28
2022-08-04T14:22:36.964Z,9.66
2022-08-04T14:25:17.838Z,9.11
2022-08-04T14:27:56.609Z,9.39
2022-08-04T14:30:37.895Z,10.41
2022-08-04T14:34:02.510Z,10.55
2022-08-04T14:36:01.633Z,9.07
2022-08-04T14:38:58.389Z,9.47
2022-08-04T14:41:44.598Z,10.30
2022-08-04T14:44:11.936Z,9.75
2022-08-04T14:46:59.188Z,9.43
2022-08-04T14:49:27.600Z,10.35
2022-08-04T14:52:03.043Z,9.53
2022-08-04T14:54:35.309Z,10.62
2022-08-04T14:57:07.585Z,9.64
2022-08-04T15:00:01.664Z,9.49
2022-08-04T15:02:30.878Z,9.62
2022-08-04T15:04:59.212Z,8.95
2022-08-04T15:07:47.523Z,9.00
2022-08-04T15:10:15.690Z,9.02
2022-08-04T15:12:43.329Z,9.01
2022-08-04T15:15:36.035Z,8.78
2022-08-04T15:18:03.686Z,9.11
2022-08-04T15:20:32.556Z,8.84
2022-08-04T15:23:01.365Z,9.37
2022-08-04T15:25:32.929Z,9.62
2022-08-04T15:28:01.695Z,9.52
2022-08-04T15:30:30.667Z,9.90
2022-08-04T15:33:03.033Z,9.94
2022-08-04T15:35:38.708Z,9.78
2022-08-04T15:38:37.392Z,9.59
2022-08-04T15:41:22.455Z,9.80
2022-08-04T15:44:51.280Z,11.18
2022-08-04T15:47:19.074Z,9.85
2022-08-04T15:50:02.072Z,9.75
2022-08-04T15:52:32.036Z,9.39
2022-08-04T15:55:41.326Z,10.90
2022-08-04T15:58:17.123Z,10.80
2022-08-04T16:01:05.022Z,9.04
2022-08-04T16:03:57.999Z,9.64
2022-08-04T16:06:28.802Z,9.64
2022-08-04T16:09:05.293Z,9.73
2022-08-04T16:11:33.892Z,9.77
2022-08-04T16:14:01.412Z,9.95
2022-08-04T16:16:38.428Z,10.25
2022-08-04T16:19:39.581Z,10.12
2022-08-04T16:22:09.921Z,11.35
2022-08-04T16:24:42.767Z,10.03
2022-08-04T16:27:13.752Z,10.05
2022-08-04T16:29:49.461Z,10.95
2022-08-04T16:32:24.381Z,10.63
2022-08-04T16:35:17.869Z,10.30
2022-08-04T16:37:45.373Z,10.98
2022-08-04T16:40:43.552Z,11.07
2022-08-04T16:43:21.029Z,10.56
2022-08-04T16:45:53.893Z,10.55
2022-08-04T16:48:32.589Z,10.90
2022-08-04T16:51:14.423Z,10.85
2022-08-04T16:54:02.899Z,11.18
2022-08-04T16:56:35.327Z,11.73
2022-08-04T16:59:13.177Z,11.67
2022-08-04T17:01:50.822Z,12.15
2022-08-04T17:04:18.420Z,11.33
2022-08-04T17:06:46.809Z,11.51
2022-08-04T17:09:19.583Z,11.74
2022-08-04T17:11:48.483Z,11.98
2022-08-04T17:14:30.360Z,13.36
2022-08-04T17:17:02.164Z,12.27
2022-08-04T17:19:29.615Z,13.31
2022-08-04T17:22:07.236Z,11.93
2022-08-04T17:24:40.929Z,11.88
2022-08-04T17:28:09.679Z,11.88
2022-08-04T17:29:57.641Z,12.33
2022-08-04T17:32:25.373Z,11.68
2022-08-04T17:35:04.076Z,12.50
2022-08-04T17:37:39.315Z,11.91
2022-08-04T17:40:18.689Z,12.56
2022-08-04T17:43:03.188Z,12.21
2022-08-04T17:46:36.941Z,12.78
2022-08-04T17:49:17.909Z,13.01
2022-08-04T17:52:09.979Z,14.20
2022-08-04T17:54:43.290Z,14.16
2022-08-04T17:57:22.082Z,14.96
2022-08-04T17:59:59.329Z,15.49
2022-08-04T18:02:34.769Z,15.62
2022-08-04T18:05:11.328Z,15.43
2022-08-04T18:08:38.951Z,15.76
2022-08-04T18:10:52.302Z,16.34
2022-08-04T18:13:28.768Z,17.22
2022-08-04T18:16:14.583Z,16.96
2022-08-04T18:19:15.338Z,17.48
2022-08-04T18:22:00.457Z,16.65
2022-08-04T18:24:35.004Z,17.35
2022-08-04T18:27:06.208Z,19.22
2022-08-04T18:29:39.041Z,19.12
2022-08-04T18:32:09.730Z,19.25
2022-08-04T18:34:40.781Z,19.45
2022-08-04T18:37:40.804Z,19.56
2022-08-04T18:40:26.801Z,19.92
2022-08-04T18:42:59.988Z,18.70
2022-08-04T18:45:34.493Z,14.94
2022-08-04T18:48:14.539Z,12.44
2022-08-04T18:51:10.419Z,10.86
2022-08-04T18:53:35.090Z,11.17
2022-08-04T18:56:19.890Z,11.30
2022-08-04T18:58:54.348Z,11.21
2022-08-04T19:01:21.744Z,10.90
2022-08-04T19:03:58.099Z,11.02
2022-08-04T19:06:25.889Z,12.01
2022-08-04T19:08:53.665Z,11.76
2022-08-04T19:14:13.149Z,11.52
2022-08-04T19:16:46.017Z,11.65
2022-08-04T19:19:17.249Z,13.45
2022-08-04T19:24:34.553Z,24.30
2022-08-04T19:27:08.261Z,25.01
2022-08-04T19:29:40.636Z,28.55
2022-08-04T19:32:15.089Z,30.27
2022-08-04T19:34:48.409Z,30.87
2022-08-04T19:38:01.825Z,27.26
2022-08-04T19:40:12.309Z,21.60
2022-08-04T19:42:42.324Z,20.49
2022-08-04T19:45:15.973Z,20.51
2022-08-04T19:48:17.257Z,21.24
2022-08-04T19:50:33.716Z,20.37
2022-08-04T19:53:01.150Z,28.29
2022-08-04T19:55:37.205Z,22.57
2022-08-04T19:58:08.962Z,22.73
2022-08-04T20:00:39.408Z,21.66
2022-08-04T20:05:57.481Z,22.86
2022-08-04T20:08:29.912Z,22.61
2022-08-04T20:10:58.185Z,22.75
2022-08-04T20:13:37.427Z,22.66
2022-08-04T20:16:14.916Z,22.49
2022-08-04T20:18:59.525Z,24.41
2022-08-04T20:21:54.094Z,23.19
2022-08-04T20:24:39.861Z,23.19
2022-08-04T20:27:21.729Z,24.01
2022-08-04T20:29:55.591Z,23.71
2022-08-04T20:32:26.817Z,23.75
2022-08-04T20:34:57.573Z,27.42
2022-08-04T20:37:55.401Z,29.22
2022-08-04T20:40:15.369Z,25.52
2022-08-04T20:42:45.437Z,30.13
2022-08-04T20:45:16.478Z,30.62
2022-08-04T20:47:53.261Z,26.90
2022-08-04T20:50:28.392Z,25.72
2022-08-04T20:52:59.015Z,26.34
2022-08-04T20:55:29.501Z,25.75
2022-08-04T20:58:03.002Z,32.75
2022-08-04T21:00:32.036Z,31.03
2022-08-04T21:02:59.971Z,35.20
2022-08-04T21:05:28.341Z,35.87
2022-08-04T21:07:59.193Z,27.94
2022-08-04T21:10:28.069Z,34.47
2022-08-04T21:12:55.640Z,35.31
2022-08-04T21:15:58.381Z,30.74
2022-08-04T21:18:16.837Z,34.98
2022-08-04T21:20:44.583Z,34.94
2022-08-04T21:23:15.588Z,36.81
2022-08-04T21:25:43.519Z,33.83
2022-08-04T21:28:12.516Z,33.41
2022-08-04T21:30:52.931Z,31.41
2022-08-04T21:33:50.238Z,32.93
2022-08-04T21:36:13.904Z,31.67
2022-08-04T21:41:32.877Z,35.08
2022-08-04T21:44:00.718Z,31.19
2022-08-04T21:46:29.965Z,32.11
2022-08-04T21:48:58.364Z,33.56
2022-08-04T21:51:59.018Z,33.55
2022-08-04T21:54:21.313Z,30.59
2022-08-04T21:56:52.259Z,29.37
2022-08-04T21:59:23.729Z,30.51
2022-08-04T22:02:01.227Z,31.03
2022-08-04T22:04:30.930Z,31.09
2022-08-04T22:06:58.469Z,31.14
2022-08-04T22:09:38.752Z,30.93
2022-08-04T22:12:11.765Z,32.23
2022-08-04T22:14:40.273Z,31.60
2022-08-04T22:17:13.630Z,31.27
2022-08-04T22:19:55.840Z,31.99
2022-08-04T22:22:28.967Z,31.81
2022-08-04T22:25:12.345Z,32.06
2022-08-04T22:28:01.016Z,32.69
2022-08-04T22:30:37.699Z,32.74
2022-08-04T22:33:08.822Z,32.49
2022-08-04T22:35:49.054Z,33.10
2022-08-04T22:38:32.752Z,32.65
2022-08-04T22:41:13.642Z,33.02
2022-08-04T22:43:43.537Z,33.60
2022-08-04T22:46:24.725Z,33.26
2022-08-04T22:48:53.444Z,33.43
2022-08-04T22:51:22.992Z,32.30
2022-08-04T22:53:52.986Z,33.93
2022-08-04T22:56:37.394Z,33.22
2022-08-04T22:59:10.279Z,33.58
2022-08-04T23:01:59.584Z,33.86
2022-08-04T23:04:33.194Z,33.76
2022-08-04T23:07:09.238Z,34.21
2022-08-04T23:09:50.122Z,33.78
2022-08-04T23:12:26.229Z,33.22
2022-08-04T23:14:58.707Z,33.83
2022-08-04T23:17:28.574Z,34.00
2022-08-04T23:19:59.609Z,34.86
2022-08-04T23:22:41.271Z,34.90
2022-08-04T23:25:15.530Z,34.90
2022-08-04T23:27:50.549Z,34.66
2022-08-04T23:30:29.833Z,34.33
2022-08-04T23:32:58.467Z,34.53
2022-08-04T23:35:26.363Z,34.50
2022-08-04T23:37:56.037Z,34.30
2022-08-04T23:40:33.727Z,35.13
2022-08-04T23:43:12.200Z,35.15
2022-08-04T23:46:03.856Z,35.40
2022-08-04T23:48:38.881Z,35.81
2022-08-04T23:51:14.260Z,35.05
2022-08-04T23:54:02.335Z,34.70
2022-08-04T23:56:34.589Z,34.34
2022-08-04T23:59:04.240Z,35.31
